sensor_id;sensor_type;location;lat;lon;timestamp;temperature;humidity
64743;HTU21D;51177;45.018;38.982;2022-09-09T00:01:59;17.24;41.72
64743;HTU21D;51177;45.018;38.982;2022-09-09T00:09:47;17.15;41.99
64743;HTU21D;51177;45.018;38.982;2022-09-09T00:15:11;17.08;42.07
64743;HTU21D;51177;45.018;38.982;2022-09-09T00:17:50;17.05;42.16
64743;HTU21D;51177;45.018;38.982;2022-09-09T00:28:32;17.08;42.19
64743;HTU21D;51177;45.018;38.982;2022-09-09T00:31:08;17.03;42.26
64743;HTU21D;51177;45.018;38.982;2022-09-09T00:33:38;17.01;42.33
64743;HTU21D;51177;45.018;38.982;2022-09-09T00:36:04;16.94;42.39
64743;HTU21D;51177;45.018;38.982;2022-09-09T00:38:37;16.87;42.48
64743;HTU21D;51177;45.018;38.982;2022-09-09T00:43:37;16.87;42.55
64743;HTU21D;51177;45.018;38.982;2022-09-09T00:51:49;16.88;42.69
64743;HTU21D;51177;45.018;38.982;2022-09-09T00:56:47;16.88;42.72
64743;HTU21D;51177;45.018;38.982;2022-09-09T00:59:32;16.85;42.79
64743;HTU21D;51177;45.018;38.982;2022-09-09T01:02:04;16.80;42.86
64743;HTU21D;51177;45.018;38.982;2022-09-09T01:04:35;16.81;42.94
64743;HTU21D;51177;45.018;38.982;2022-09-09T01:07:23;16.79;43.01
64743;HTU21D;51177;45.018;38.982;2022-09-09T01:09:56;16.79;43.10
64743;HTU21D;51177;45.018;38.982;2022-09-09T01:12:44;16.80;43.21
64743;HTU21D;51177;45.018;38.982;2022-09-09T01:15:16;16.85;43.28
64743;HTU21D;51177;45.018;38.982;2022-09-09T01:17:50;16.85;43.29
64743;HTU21D;51177;45.018;38.982;2022-09-09T01:20:29;16.82;43.32
64743;HTU21D;51177;45.018;38.982;2022-09-09T01:28:25;16.80;43.53
64743;HTU21D;51177;45.018;38.982;2022-09-09T01:30:56;16.86;43.42
64743;HTU21D;51177;45.018;38.982;2022-09-09T01:33:24;16.81;43.47
64743;HTU21D;51177;45.018;38.982;2022-09-09T01:35:52;16.77;43.60
64743;HTU21D;51177;45.018;38.982;2022-09-09T01:38:33;16.76;43.63
64743;HTU21D;51177;45.018;38.982;2022-09-09T01:41:00;16.72;43.65
64743;HTU21D;51177;45.018;38.982;2022-09-09T01:43:36;16.69;43.74
64743;HTU21D;51177;45.018;38.982;2022-09-09T01:46:04;16.66;43.75
64743;HTU21D;51177;45.018;38.982;2022-09-09T01:48:31;16.64;43.82
64743;HTU21D;51177;45.018;38.982;2022-09-09T01:51:04;16.61;43.84
64743;HTU21D;51177;45.018;38.982;2022-09-09T01:53:32;16.58;43.89
64743;HTU21D;51177;45.018;38.982;2022-09-09T01:58:37;16.56;44.09
64743;HTU21D;51177;45.018;38.982;2022-09-09T02:03:52;16.60;44.11
64743;HTU21D;51177;45.018;38.982;2022-09-09T02:08:57;16.52;44.35
64743;HTU21D;51177;45.018;38.982;2022-09-09T02:11:26;16.49;44.40
64743;HTU21D;51177;45.018;38.982;2022-09-09T02:14:10;16.48;44.47
64743;HTU21D;51177;45.018;38.982;2022-09-09T02:19:09;16.47;44.54
64743;HTU21D;51177;45.018;38.982;2022-09-09T02:21:56;16.46;44.62
64743;HTU21D;51177;45.018;38.982;2022-09-09T02:24:24;16.45;44.70
64743;HTU21D;51177;45.018;38.982;2022-09-09T02:27:01;16.42;44.76
64743;HTU21D;51177;45.018;38.982;2022-09-09T02:29:30;16.43;44.80
64743;HTU21D;51177;45.018;38.982;2022-09-09T02:31:58;16.42;44.86
64743;HTU21D;51177;45.018;38.982;2022-09-09T02:34:32;16.43;44.98
64743;HTU21D;51177;45.018;38.982;2022-09-09T02:37:26;16.51;45.09
64743;HTU21D;51177;45.018;38.982;2022-09-09T02:39:56;16.55;45.06
64743;HTU21D;51177;45.018;38.982;2022-09-09T02:42:23;16.54;45.09
64743;HTU21D;51177;45.018;38.982;2022-09-09T02:44:51;16.52;45.12
64743;HTU21D;51177;45.018;38.982;2022-09-09T02:52:50;16.74;45.19
64743;HTU21D;51177;45.018;38.982;2022-09-09T02:58:09;16.75;45.49
64743;HTU21D;51177;45.018;38.982;2022-09-09T03:00:37;16.82;45.57
64743;HTU21D;51177;45.018;38.982;2022-09-09T03:03:06;16.89;45.52
64743;HTU21D;51177;45.018;38.982;2022-09-09T03:05:37;16.85;45.45
64743;HTU21D;51177;45.018;38.982;2022-09-09T03:08:04;16.77;45.53
64743;HTU21D;51177;45.018;38.982;2022-09-09T03:10:33;16.69;45.77
64743;HTU21D;51177;45.018;38.982;2022-09-09T03:13:00;16.69;45.80
64743;HTU21D;51177;45.018;38.982;2022-09-09T03:15:30;16.66;45.81
64743;HTU21D;51177;45.018;38.982;2022-09-09T03:17:58;16.64;45.77
64743;HTU21D;51177;45.018;38.982;2022-09-09T03:20:25;16.62;45.91
64743;HTU21D;51177;45.018;38.982;2022-09-09T03:22:52;16.63;45.87
64743;HTU21D;51177;45.018;38.982;2022-09-09T03:25:19;16.62;45.84
64743;HTU21D;51177;45.018;38.982;2022-09-09T03:27:46;16.62;45.77
64743;HTU21D;51177;45.018;38.982;2022-09-09T03:30:12;16.67;45.77
64743;HTU21D;51177;45.018;38.982;2022-09-09T03:32:41;16.75;45.63
64743;HTU21D;51177;45.018;38.982;2022-09-09T03:35:08;16.76;45.64
64743;HTU21D;51177;45.018;38.982;2022-09-09T03:37:34;16.86;45.83
64743;HTU21D;51177;45.018;38.982;2022-09-09T03:40:00;16.96;45.39
64743;HTU21D;51177;45.018;38.982;2022-09-09T03:42:28;17.02;45.80
64743;HTU21D;51177;45.018;38.982;2022-09-09T03:44:56;17.17;45.47
64743;HTU21D;51177;45.018;38.982;2022-09-09T03:47:24;17.29;45.46
64743;HTU21D;51177;45.018;38.982;2022-09-09T03:49:56;17.32;45.61
64743;HTU21D;51177;45.018;38.982;2022-09-09T03:52:22;17.32;45.61
64743;HTU21D;51177;45.018;38.982;2022-09-09T03:54:52;17.36;45.59
64743;HTU21D;51177;45.018;38.982;2022-09-09T03:57:19;17.34;45.60
64743;HTU21D;51177;45.018;38.982;2022-09-09T03:59:45;17.28;45.62
64743;HTU21D;51177;45.018;38.982;2022-09-09T04:02:11;17.25;45.80
64743;HTU21D;51177;45.018;38.982;2022-09-09T04:04:37;17.24;45.78
64743;HTU21D;51177;45.018;38.982;2022-09-09T04:07:04;17.20;45.83
64743;HTU21D;51177;45.018;38.982;2022-09-09T04:09:33;17.24;45.95
64743;HTU21D;51177;45.018;38.982;2022-09-09T04:12:00;17.26;45.83
64743;HTU21D;51177;45.018;38.982;2022-09-09T04:14:26;17.25;45.86
64743;HTU21D;51177;45.018;38.982;2022-09-09T04:16:55;17.25;45.86
64743;HTU21D;51177;45.018;38.982;2022-09-09T04:19:23;17.29;45.86
64743;HTU21D;51177;45.018;38.982;2022-09-09T04:21:51;17.34;45.97
64743;HTU21D;51177;45.018;38.982;2022-09-09T04:24:18;17.63;46.31
64743;HTU21D;51177;45.018;38.982;2022-09-09T04:26:47;18.12;46.38
64743;HTU21D;51177;45.018;38.982;2022-09-09T04:29:13;18.58;45.94
64743;HTU21D;51177;45.018;38.982;2022-09-09T04:31:39;18.89;45.56
64743;HTU21D;51177;45.018;38.982;2022-09-09T04:34:11;19.33;45.37
64743;HTU21D;51177;45.018;38.982;2022-09-09T04:36:43;19.90;44.87
64743;HTU21D;51177;45.018;38.982;2022-09-09T04:39:12;20.55;44.28
64743;HTU21D;51177;45.018;38.982;2022-09-09T04:41:38;21.18;43.72
64743;HTU21D;51177;45.018;38.982;2022-09-09T04:44:05;21.80;43.01
64743;HTU21D;51177;45.018;38.982;2022-09-09T04:46:32;22.37;42.48
64743;HTU21D;51177;45.018;38.982;2022-09-09T04:49:00;22.94;41.88
64743;HTU21D;51177;45.018;38.982;2022-09-09T04:51:30;23.46;41.29
64743;HTU21D;51177;45.018;38.982;2022-09-09T04:53:57;24.00;40.68
64743;HTU21D;51177;45.018;38.982;2022-09-09T04:56:23;24.58;40.04
64743;HTU21D;51177;45.018;38.982;2022-09-09T04:58:57;25.13;39.41
64743;HTU21D;51177;45.018;38.982;2022-09-09T05:01:33;25.51;38.80
64743;HTU21D;51177;45.018;38.982;2022-09-09T05:04:03;25.84;38.40
64743;HTU21D;51177;45.018;38.982;2022-09-09T05:06:31;26.34;37.79
64743;HTU21D;51177;45.018;38.982;2022-09-09T05:08:59;26.78;37.21
64743;HTU21D;51177;45.018;38.982;2022-09-09T05:11:29;27.17;36.74
64743;HTU21D;51177;45.018;38.982;2022-09-09T05:14:04;27.56;36.10
64743;HTU21D;51177;45.018;38.982;2022-09-09T05:16:31;27.91;35.68
64743;HTU21D;51177;45.018;38.982;2022-09-09T05:18:57;28.26;35.32
64743;HTU21D;51177;45.018;38.982;2022-09-09T05:21:30;28.57;34.90
64743;HTU21D;51177;45.018;38.982;2022-09-09T05:23:56;28.88;34.51
64743;HTU21D;51177;45.018;38.982;2022-09-09T05:26:23;29.27;33.92
64743;HTU21D;51177;45.018;38.982;2022-09-09T05:28:51;29.65;33.30
64743;HTU21D;51177;45.018;38.982;2022-09-09T05:31:18;29.87;32.76
64743;HTU21D;51177;45.018;38.982;2022-09-09T05:33:47;30.08;32.41
64743;HTU21D;51177;45.018;38.982;2022-09-09T05:36:16;30.26;32.14
64743;HTU21D;51177;45.018;38.982;2022-09-09T05:38:42;30.53;31.52
64743;HTU21D;51177;45.018;38.982;2022-09-09T05:41:10;30.76;31.24
64743;HTU21D;51177;45.018;38.982;2022-09-09T05:43:41;31.04;30.93
64743;HTU21D;51177;45.018;38.982;2022-09-09T05:46:12;31.31;30.37
64743;HTU21D;51177;45.018;38.982;2022-09-09T05:48:40;31.50;30.01
64743;HTU21D;51177;45.018;38.982;2022-09-09T05:51:11;31.36;29.96
64743;HTU21D;51177;45.018;38.982;2022-09-09T05:53:45;30.99;30.56
64743;HTU21D;51177;45.018;38.982;2022-09-09T05:56:13;31.01;30.47
64743;HTU21D;51177;45.018;38.982;2022-09-09T05:58:40;31.25;30.19
64743;HTU21D;51177;45.018;38.982;2022-09-09T06:01:11;31.59;29.74
64743;HTU21D;51177;45.018;38.982;2022-09-09T06:03:38;31.56;29.54
64743;HTU21D;51177;45.018;38.982;2022-09-09T06:06:06;31.88;29.37
64743;HTU21D;51177;45.018;38.982;2022-09-09T06:08:33;32.19;28.55
64743;HTU21D;51177;45.018;38.982;2022-09-09T06:11:03;32.41;28.18
64743;HTU21D;51177;45.018;38.982;2022-09-09T06:13:30;32.19;28.00
64743;HTU21D;51177;45.018;38.982;2022-09-09T06:15:56;31.99;28.06
64743;HTU21D;51177;45.018;38.982;2022-09-09T06:18:24;32.00;28.09
64743;HTU21D;51177;45.018;38.982;2022-09-09T06:20:56;32.23;27.03
64743;HTU21D;51177;45.018;38.982;2022-09-09T06:23:22;32.37;26.91
64743;HTU21D;51177;45.018;38.982;2022-09-09T06:25:48;32.59;26.46
64743;HTU21D;51177;45.018;38.982;2022-09-09T06:28:15;32.74;26.27
64743;HTU21D;51177;45.018;38.982;2022-09-09T06:30:41;33.04;25.93
64743;HTU21D;51177;45.018;38.982;2022-09-09T06:33:08;33.33;25.82
64743;HTU21D;51177;45.018;38.982;2022-09-09T06:35:35;33.57;25.25
64743;HTU21D;51177;45.018;38.982;2022-09-09T06:38:02;33.75;24.75
64743;HTU21D;51177;45.018;38.982;2022-09-09T06:40:34;33.72;24.40
64743;HTU21D;51177;45.018;38.982;2022-09-09T06:43:00;33.83;24.49
64743;HTU21D;51177;45.018;38.982;2022-09-09T06:45:38;33.81;24.74
64743;HTU21D;51177;45.018;38.982;2022-09-09T06:48:04;33.81;24.69
64743;HTU21D;51177;45.018;38.982;2022-09-09T06:50:31;33.91;23.75
64743;HTU21D;51177;45.018;38.982;2022-09-09T06:52:57;33.61;23.75
64743;HTU21D;51177;45.018;38.982;2022-09-09T06:55:23;33.65;23.66
64743;HTU21D;51177;45.018;38.982;2022-09-09T06:57:49;33.66;23.24
64743;HTU21D;51177;45.018;38.982;2022-09-09T07:00:20;33.63;23.37
64743;HTU21D;51177;45.018;38.982;2022-09-09T07:02:46;33.76;23.62
64743;HTU21D;51177;45.018;38.982;2022-09-09T07:05:13;33.96;23.33
64743;HTU21D;51177;45.018;38.982;2022-09-09T07:07:42;34.17;22.97
64743;HTU21D;51177;45.018;38.982;2022-09-09T07:10:10;34.08;23.10
64743;HTU21D;51177;45.018;38.982;2022-09-09T07:12:37;34.27;23.21
64743;HTU21D;51177;45.018;38.982;2022-09-09T07:15:03;34.52;22.76
64743;HTU21D;51177;45.018;38.982;2022-09-09T07:17:29;34.46;21.96
64743;HTU21D;51177;45.018;38.982;2022-09-09T07:19:56;34.25;20.84
64743;HTU21D;51177;45.018;38.982;2022-09-09T07:22:22;33.91;21.47
64743;HTU21D;51177;45.018;38.982;2022-09-09T07:24:48;33.71;21.94
64743;HTU21D;51177;45.018;38.982;2022-09-09T07:27:16;33.73;21.83
64743;HTU21D;51177;45.018;38.982;2022-09-09T07:29:42;33.86;22.12
64743;HTU21D;51177;45.018;38.982;2022-09-09T07:32:09;33.82;21.78
64743;HTU21D;51177;45.018;38.982;2022-09-09T07:34:37;33.58;21.79
64743;HTU21D;51177;45.018;38.982;2022-09-09T07:37:03;33.52;21.95
64743;HTU21D;51177;45.018;38.982;2022-09-09T07:39:30;33.44;22.03
64743;HTU21D;51177;45.018;38.982;2022-09-09T07:41:57;33.45;22.26
64743;HTU21D;51177;45.018;38.982;2022-09-09T07:44:24;33.62;22.32
64743;HTU21D;51177;45.018;38.982;2022-09-09T07:46:58;33.87;21.81
64743;HTU21D;51177;45.018;38.982;2022-09-09T07:49:29;33.97;20.94
64743;HTU21D;51177;45.018;38.982;2022-09-09T07:51:56;33.66;21.18
64743;HTU21D;51177;45.018;38.982;2022-09-09T07:54:22;33.52;21.47
64743;HTU21D;51177;45.018;38.982;2022-09-09T07:57:13;33.33;21.44
64743;HTU21D;51177;45.018;38.982;2022-09-09T07:59:42;33.46;21.63
64743;HTU21D;51177;45.018;38.982;2022-09-09T08:02:08;33.82;21.44
64743;HTU21D;51177;45.018;38.982;2022-09-09T08:04:38;34.10;21.14
64743;HTU21D;51177;45.018;38.982;2022-09-09T08:07:04;34.36;20.95
64743;HTU21D;51177;45.018;38.982;2022-09-09T08:09:38;34.55;20.92
64743;HTU21D;51177;45.018;38.982;2022-09-09T08:12:10;34.59;20.80
64743;HTU21D;51177;45.018;38.982;2022-09-09T08:14:36;34.61;20.91
64743;HTU21D;51177;45.018;38.982;2022-09-09T08:17:02;34.53;20.25
64743;HTU21D;51177;45.018;38.982;2022-09-09T08:19:31;34.35;20.17
64743;HTU21D;51177;45.018;38.982;2022-09-09T08:22:04;33.97;19.44
64743;HTU21D;51177;45.018;38.982;2022-09-09T08:24:32;33.48;19.97
64743;HTU21D;51177;45.018;38.982;2022-09-09T08:26:59;33.61;20.02
64743;HTU21D;51177;45.018;38.982;2022-09-09T08:29:25;33.89;19.93
64743;HTU21D;51177;45.018;38.982;2022-09-09T08:31:53;34.08;19.90
64743;HTU21D;51177;45.018;38.982;2022-09-09T08:34:20;34.22;19.89
64743;HTU21D;51177;45.018;38.982;2022-09-09T08:36:48;34.34;19.89
64743;HTU21D;51177;45.018;38.982;2022-09-09T08:39:17;34.41;19.86
64743;HTU21D;51177;45.018;38.982;2022-09-09T08:44:17;33.75;20.14
64743;HTU21D;51177;45.018;38.982;2022-09-09T08:47:11;33.09;20.77
64743;HTU21D;51177;45.018;38.982;2022-09-09T08:52:29;32.24;21.98
64743;HTU21D;51177;45.018;38.982;2022-09-09T08:54:56;31.69;22.41
64743;HTU21D;51177;45.018;38.982;2022-09-09T08:57:25;31.14;22.67
64743;HTU21D;51177;45.018;38.982;2022-09-09T08:59:54;30.59;23.13
64743;HTU21D;51177;45.018;38.982;2022-09-09T09:02:32;30.07;23.46
64743;HTU21D;51177;45.018;38.982;2022-09-09T09:05:17;29.57;23.81
64743;HTU21D;51177;45.018;38.982;2022-09-09T09:10:39;28.73;24.42
64743;HTU21D;51177;45.018;38.982;2022-09-09T09:13:19;28.38;24.92
64743;HTU21D;51177;45.018;38.982;2022-09-09T09:15:53;28.19;24.98
64743;HTU21D;51177;45.018;38.982;2022-09-09T09:18:22;28.03;25.20
64743;HTU21D;51177;45.018;38.982;2022-09-09T09:24:05;27.59;25.31
64743;HTU21D;51177;45.018;38.982;2022-09-09T09:26:25;27.45;25.45
64743;HTU21D;51177;45.018;38.982;2022-09-09T09:28:55;27.36;25.20
64743;HTU21D;51177;45.018;38.982;2022-09-09T09:31:22;27.25;25.59
64743;HTU21D;51177;45.018;38.982;2022-09-09T09:33:53;27.22;25.56
64743;HTU21D;51177;45.018;38.982;2022-09-09T09:36:24;27.16;25.59
64743;HTU21D;51177;45.018;38.982;2022-09-09T09:41:44;27.01;25.72
64743;HTU21D;51177;45.018;38.982;2022-09-09T09:44:28;27.00;25.75
64743;HTU21D;51177;45.018;38.982;2022-09-09T09:47:07;26.97;25.65
64743;HTU21D;51177;45.018;38.982;2022-09-09T09:49:35;26.94;25.48
64743;HTU21D;51177;45.018;38.982;2022-09-09T09:52:01;26.91;25.14
64743;HTU21D;51177;45.018;38.982;2022-09-09T09:54:33;26.81;25.27
64743;HTU21D;51177;45.018;38.982;2022-09-09T09:57:10;26.78;25.32
64743;HTU21D;51177;45.018;38.982;2022-09-09T12:51:18;26.56;25.62
64743;HTU21D;51177;45.018;38.982;2022-09-09T12:53:53;26.50;25.61
64743;HTU21D;51177;45.018;38.982;2022-09-09T12:56:20;26.41;25.73
64743;HTU21D;51177;45.018;38.982;2022-09-09T12:58:47;26.33;25.74
64743;HTU21D;51177;45.018;38.982;2022-09-09T13:01:24;26.23;25.78
64743;HTU21D;51177;45.018;38.982;2022-09-09T13:03:50;26.16;25.78
64743;HTU21D;51177;45.018;38.982;2022-09-09T13:06:19;26.12;25.85
64743;HTU21D;51177;45.018;38.982;2022-09-09T13:08:45;26.11;25.84
64743;HTU21D;51177;45.018;38.982;2022-09-09T13:11:15;26.06;25.81
64743;HTU21D;51177;45.018;38.982;2022-09-09T13:13:43;25.95;25.91
64743;HTU21D;51177;45.018;38.982;2022-09-09T13:16:34;25.90;26.01
64743;HTU21D;51177;45.018;38.982;2022-09-09T13:19:07;25.88;25.88
64743;HTU21D;51177;45.018;38.982;2022-09-09T13:21:38;25.83;25.62
64743;HTU21D;51177;45.018;38.982;2022-09-09T13:24:06;25.77;25.86
64743;HTU21D;51177;45.018;38.982;2022-09-09T13:26:33;25.67;26.04
64743;HTU21D;51177;45.018;38.982;2022-09-09T13:29:18;25.67;26.02
64743;HTU21D;51177;45.018;38.982;2022-09-09T13:31:45;25.66;26.01
64743;HTU21D;51177;45.018;38.982;2022-09-09T13:34:33;25.66;25.78
64743;HTU21D;51177;45.018;38.982;2022-09-09T13:37:02;25.64;26.03
64743;HTU21D;51177;45.018;38.982;2022-09-09T13:39:29;25.62;26.00
64743;HTU21D;51177;45.018;38.982;2022-09-09T13:41:55;25.57;26.07
64743;HTU21D;51177;45.018;38.982;2022-09-09T13:44:28;25.51;25.82
64743;HTU21D;51177;45.018;38.982;2022-09-09T13:49:40;25.43;26.10
64743;HTU21D;51177;45.018;38.982;2022-09-09T13:52:11;25.37;25.98
64743;HTU21D;51177;45.018;38.982;2022-09-09T13:54:39;25.34;25.95
64743;HTU21D;51177;45.018;38.982;2022-09-09T13:57:12;25.30;26.14
64743;HTU21D;51177;45.018;38.982;2022-09-09T13:59:40;25.27;26.19
64743;HTU21D;51177;45.018;38.982;2022-09-09T14:02:06;25.21;26.25
64743;HTU21D;51177;45.018;38.982;2022-09-09T14:04:32;25.19;26.25
64743;HTU21D;51177;45.018;38.982;2022-09-09T14:07:00;25.17;26.27
64743;HTU21D;51177;45.018;38.982;2022-09-09T14:09:27;25.14;26.30
64743;HTU21D;51177;45.018;38.982;2022-09-09T14:11:52;25.10;26.34
64743;HTU21D;51177;45.018;38.982;2022-09-09T14:14:20;25.06;26.29
64743;HTU21D;51177;45.018;38.982;2022-09-09T14:16:46;25.02;26.39
64743;HTU21D;51177;45.018;38.982;2022-09-09T14:19:20;24.97;26.39
64743;HTU21D;51177;45.018;38.982;2022-09-09T14:21:46;24.91;26.48
64743;HTU21D;51177;45.018;38.982;2022-09-09T14:24:12;24.87;26.55
64743;HTU21D;51177;45.018;38.982;2022-09-09T14:26:38;24.80;26.54
